Ralston, Wyoming
Current Conditions -  °F | °C
As of 2:15 PM on Tuesday 21 Oct 2014 (Local Time) from KPOY Reporting Station
Clear Clear  
Wind Chill: 18°   Ceiling: Unl
Heat Index: 18°   Visibility: 10mi
Dew Point:   Wind: 6mph
Humidity: 37%   Direction: 170°S
Pressure: 29.76"   Gusts: NA
Location:  44.72°N, 108.87°W
Report Text: KPOY 212015Z AUTO 17005KT 10SM CLR 18/03 A2976 RMK AO2
Loading
Personal Weather Stations






























Interactive Weather Map
Tropical Storm Tracking
New forecast layout! Learn more

10-Day Weather Forecast

Advertisements
Track Severe Weather on mobile